Time;durP1;ratioP1;P1;durP2;ratioP2;P2;SDS_P1;SDS_P2;PMS_P1;PMS_P2;Temp;Humidity;BMP_temperature;BMP_pressure;BME280_temperature;BME280_humidity;BME280_pressure;Samples;Min_cycle;Max_cycle;Signal;HPM_P1;HPM_P2
2022/10/04 00:01:57;;;;;;;23.03;2.47;;;13.10;99.90;;;;;;5264813;28;21006;-50
2022/10/04 00:04:41;;;;;;;11.60;2.50;;;13.00;99.90;;;;;;5261777;28;20231;-48
2022/10/04 00:07:11;;;;;;;24.53;3.23;;;13.10;99.90;;;;;;5270942;28;20427;-47
2022/10/04 00:09:46;;;;;;;8.93;2.40;;;13.10;99.90;;;;;;5259938;28;20718;-48
2022/10/04 00:12:37;;;;;;;15.07;2.97;;;13.00;99.90;;;;;;5270048;28;20169;-48
2022/10/04 00:15:37;;;;;;;10.13;2.60;;;13.00;99.90;;;;;;5259022;28;20424;-46
2022/10/04 00:18:11;;;;;;;10.00;2.77;;;13.00;99.90;;;;;;5257034;28;20448;-52
2022/10/04 00:20:52;;;;;;;7.60;2.20;;;13.00;99.90;;;;;;5258103;28;21031;-49
2022/10/04 00:23:22;;;;;;;5.43;2.10;;;13.00;99.90;;;;;;5271354;28;20431;-47
2022/10/04 00:25:57;;;;;;;21.17;2.73;;;13.00;99.90;;;;;;5268935;28;20471;-47
2022/10/04 00:28:48;;;;;;;8.47;2.27;;;13.00;99.90;;;;;;5247918;28;20280;-47
2022/10/04 00:31:28;;;;;;;8.33;2.70;;;13.00;99.90;;;;;;5255994;28;20580;-47
2022/10/04 00:34:07;;;;;;;14.03;3.03;;;13.00;99.90;;;;;;5266808;28;20425;-47
2022/10/04 00:36:44;;;;;;;10.33;2.80;;;12.90;99.90;;;;;;5249326;28;21008;-46
2022/10/04 00:39:24;;;;;;;17.03;2.73;;;12.90;99.90;;;;;;5247374;28;20558;-48
2022/10/04 00:42:02;;;;;;;8.33;2.43;;;12.90;99.90;;;;;;5239123;28;20422;-47
2022/10/04 00:44:40;;;;;;;5.40;2.00;;;12.90;99.90;;;;;;5252364;28;21018;-48
2022/10/04 00:47:20;;;;;;;10.40;3.13;;;13.00;99.90;;;;;;5257602;28;20485;-46
2022/10/04 00:49:59;;;;;;;15.53;3.00;;;13.00;99.90;;;;;;5269098;28;20847;-45
2022/10/04 00:52:35;;;;;;;5.60;2.23;;;12.90;99.90;;;;;;5259659;28;21020;-46
2022/10/04 00:55:08;;;;;;;6.57;2.60;;;12.90;99.90;;;;;;5243593;28;20432;-46
2022/10/04 00:57:46;;;;;;;6.90;2.00;;;12.90;99.90;;;;;;5234755;28;20436;-47
2022/10/04 01:00:18;;;;;;;5.93;1.90;;;12.90;99.90;;;;;;5245471;28;20448;-48
2022/10/04 01:03:00;;;;;;;10.00;2.63;;;13.00;99.90;;;;;;5254733;28;20546;-47
2022/10/04 01:05:36;;;;;;;21.50;3.00;;;12.90;99.90;;;;;;5239234;28;21023;-46
2022/10/04 01:08:24;;;;;;;24.37;2.70;;;13.00;99.90;;;;;;5248927;28;20431;-47
2022/10/04 01:11:00;;;;;;;12.73;2.60;;;12.90;99.90;;;;;;5247194;28;20428;-47
2022/10/04 01:13:44;;;;;;;14.87;2.83;;;12.90;99.90;;;;;;5261829;28;20435;-47
2022/10/04 01:16:18;;;;;;;10.67;2.87;;;12.90;99.90;;;;;;5252473;28;20462;-47
2022/10/04 01:18:49;;;;;;;6.00;2.30;;;12.80;99.90;;;;;;5269203;28;20450;-48
2022/10/04 01:21:20;;;;;;;7.93;2.70;;;12.80;99.90;;;;;;5247045;28;20415;-47
2022/10/04 01:23:56;;;;;;;9.70;2.33;;;12.80;99.90;;;;;;5250909;28;20574;-46
2022/10/04 01:26:33;;;;;;;7.70;2.47;;;12.70;99.90;;;;;;5269020;28;20266;-47
2022/10/04 01:29:22;;;;;;;10.93;2.20;;;12.70;99.90;;;;;;5246616;28;20447;-48
2022/10/04 01:31:54;;;;;;;22.27;2.70;;;12.70;99.90;;;;;;5251030;28;20756;-47
2022/10/04 01:34:28;;;;;;;7.17;2.27;;;12.70;99.90;;;;;;5269110;28;20431;-47
2022/10/04 01:36:59;;;;;;;12.37;1.77;;;12.70;99.90;;;;;;5247737;28;20436;-47
2022/10/04 01:39:30;;;;;;;5.60;2.20;;;12.80;99.90;;;;;;5239127;28;20502;-49
2022/10/04 01:42:15;;;;;;;6.70;2.40;;;12.80;99.90;;;;;;5247889;28;20895;-47
2022/10/04 01:45:09;;;;;;;16.20;3.03;;;12.70;99.90;;;;;;5262225;28;20959;-47
2022/10/04 01:47:42;;;;;;;10.40;1.90;;;12.70;99.90;;;;;;5260095;28;20429;-47
2022/10/04 01:50:19;;;;;;;10.83;2.47;;;12.60;99.90;;;;;;5262746;28;20557;-46
2022/10/04 01:52:55;;;;;;;7.13;2.87;;;12.60;99.90;;;;;;5245079;28;20477;-49
2022/10/04 01:55:31;;;;;;;9.63;2.27;;;12.60;99.90;;;;;;5255662;28;20526;-46
2022/10/04 01:58:15;;;;;;;9.83;2.50;;;12.70;99.90;;;;;;5238937;28;20429;-46
2022/10/04 02:01:12;;;;;;;7.00;2.00;;;12.60;99.90;;;;;;5233405;28;20447;-46
2022/10/04 02:03:53;;;;;;;8.83;1.80;;;12.60;99.90;;;;;;5246342;28;20473;-46
2022/10/04 02:06:24;;;;;;;12.30;2.53;;;12.60;99.90;;;;;;5242521;28;20836;-46
2022/10/04 02:08:56;;;;;;;13.50;2.80;;;12.60;99.90;;;;;;5261945;28;20462;-48
2022/10/04 02:11:30;;;;;;;15.50;2.50;;;12.60;99.90;;;;;;5259320;28;20485;-46
2022/10/04 02:14:00;;;;;;;9.10;2.23;;;12.60;99.90;;;;;;5233312;28;20474;-47
2022/10/04 02:16:37;;;;;;;7.17;2.07;;;12.60;99.90;;;;;;5253295;28;20463;-46
2022/10/04 02:19:09;;;;;;;12.93;2.73;;;12.50;99.90;;;;;;5250858;28;20563;-49
2022/10/04 02:21:41;;;;;;;10.83;3.00;;;12.50;99.90;;;;;;5267980;28;20419;-47
2022/10/04 02:24:12;;;;;;;6.10;1.97;;;12.50;99.90;;;;;;5246673;28;20469;-47
2022/10/04 02:26:51;;;;;;;12.43;2.57;;;12.30;99.90;;;;;;5263444;28;20555;-48
2022/10/04 02:29:22;;;;;;;6.17;2.33;;;12.20;99.90;;;;;;5230253;28;20483;-46
2022/10/04 02:34:42;;;;;;;9.00;2.87;;;12.10;99.90;;;;;;5252757;28;20613;-48
2022/10/04 02:37:14;;;;;;;16.23;3.07;;;12.00;99.90;;;;;;5245878;28;20439;-47
2022/10/04 02:40:22;;;;;;;12.33;2.60;;;11.90;99.90;;;;;;5254024;28;20213;-46
2022/10/04 02:43:06;;;;;;;3.03;1.63;;;11.90;99.90;;;;;;5207379;28;20453;-46
2022/10/04 02:45:40;;;;;;;5.10;2.37;;;11.90;99.90;;;;;;5242984;28;20567;-49
2022/10/04 02:48:33;;;;;;;4.67;1.80;;;11.90;99.90;;;;;;5242411;28;20443;-47
2022/10/04 02:51:19;;;;;;;9.10;2.60;;;11.90;99.90;;;;;;5250505;28;20486;-47
2022/10/04 02:54:11;;;;;;;12.77;3.73;;;12.00;99.90;;;;;;5236000;28;20955;-46
2022/10/04 02:56:43;;;;;;;6.20;2.40;;;12.10;99.90;;;;;;5259508;28;20501;-46
2022/10/04 02:59:15;;;;;;;7.87;2.80;;;12.10;99.90;;;;;;5243066;28;20459;-48
2022/10/04 03:01:57;;;;;;;3.87;2.00;;;12.10;99.90;;;;;;5257537;28;20428;-45
2022/10/04 03:04:36;;;;;;;12.03;2.90;;;12.00;99.90;;;;;;5249507;28;20428;-46
2022/10/04 03:07:08;;;;;;;6.83;2.27;;;11.90;99.90;;;;;;5263070;28;20838;-47
2022/10/04 03:09:39;;;;;;;8.13;2.40;;;11.80;99.90;;;;;;5265681;28;20966;-50
2022/10/04 03:12:12;;;;;;;11.40;2.90;;;11.70;99.90;;;;;;5266003;28;20411;-46
2022/10/04 03:14:44;;;;;;;5.83;2.60;;;11.60;99.90;;;;;;5259206;28;20484;-46
2022/10/04 03:17:16;;;;;;;8.57;2.70;;;11.50;99.90;;;;;;5269594;28;20435;-47
2022/10/04 03:19:48;;;;;;;5.30;2.30;;;11.50;99.90;;;;;;5251214;28;20454;-47
2022/10/04 03:22:19;;;;;;;21.50;3.80;;;11.40;99.90;;;;;;5271569;28;20424;-47
2022/10/04 03:24:53;;;;;;;14.67;2.90;;;11.40;99.90;;;;;;5236868;28;20465;-48
2022/10/04 03:27:32;;;;;;;8.00;3.10;;;11.30;99.90;;;;;;5250688;28;20183;-46
2022/10/04 03:30:03;;;;;;;14.57;3.20;;;11.30;99.90;;;;;;5258508;28;20559;-47
2022/10/04 03:32:34;;;;;;;11.23;2.60;;;11.20;99.90;;;;;;5241708;28;20516;-47
2022/10/04 03:35:16;;;;;;;7.37;2.40;;;11.20;99.90;;;;;;5251960;28;20523;-50
2022/10/04 03:37:47;;;;;;;10.33;3.37;;;11.20;99.90;;;;;;5272561;28;20184;-48
2022/10/04 03:40:20;;;;;;;11.30;2.73;;;11.20;99.90;;;;;;5266722;22;21083;-51
2022/10/04 03:42:50;;;;;;;10.53;2.90;;;11.20;99.90;;;;;;5229353;28;20218;-52
2022/10/04 03:45:22;;;;;;;6.33;2.63;;;11.10;99.90;;;;;;5243437;28;20484;-49
2022/10/04 03:47:57;;;;;;;10.93;3.60;;;11.10;99.90;;;;;;5250073;28;20217;-49
2022/10/04 03:50:33;;;;;;;8.67;2.73;;;11.10;99.90;;;;;;5237673;28;20940;-51
2022/10/04 03:53:17;;;;;;;26.97;3.40;;;11.10;99.90;;;;;;5246362;28;20424;-50
2022/10/04 03:55:48;;;;;;;13.37;5.27;;;11.10;99.90;;;;;;5249536;28;20436;-51
2022/10/04 03:58:19;;;;;;;3.43;2.40;;;11.10;99.90;;;;;;5248494;28;20448;-50
2022/10/04 04:01:02;;;;;;;16.63;3.17;;;11.10;99.90;;;;;;5252479;28;20710;-51
2022/10/04 04:04:00;;;;;;;10.87;3.40;;;11.10;99.90;;;;;;5242388;28;20963;-51
2022/10/04 04:06:48;;;;;;;15.40;3.07;;;11.20;99.90;;;;;;5226946;28;20953;-50
2022/10/04 04:09:26;;;;;;;20.97;3.70;;;11.20;99.90;;;;;;5234403;28;20537;-50
2022/10/04 04:11:59;;;;;;;5.17;2.60;;;11.30;99.90;;;;;;5236736;28;20475;-50
2022/10/04 04:14:30;;;;;;;5.77;2.30;;;11.30;99.90;;;;;;5249030;28;20444;-51
2022/10/04 04:17:36;;;;;;;13.10;3.03;;;11.30;99.90;;;;;;5247668;28;20431;-51
2022/10/04 04:20:32;;;;;;;14.00;3.10;;;11.30;99.90;;;;;;5247494;28;20296;-50
2022/10/04 04:23:09;;;;;;;11.70;3.10;;;11.20;99.90;;;;;;5247635;28;20547;-50
2022/10/04 04:25:50;;;;;;;17.50;2.50;;;11.00;99.90;;;;;;5246976;28;20815;-51
2022/10/04 04:28:39;;;;;;;11.60;3.03;;;10.90;99.90;;;;;;5248007;28;20477;-50
2022/10/04 04:31:16;;;;;;;14.13;3.20;;;10.90;99.90;;;;;;5248306;28;20462;-51
2022/10/04 04:34:01;;;;;;;13.50;3.80;;;10.80;99.90;;;;;;5254159;28;20771;-50
2022/10/04 04:36:40;;;;;;;9.43;3.00;;;10.70;99.90;;;;;;5245259;28;20455;-51
2022/10/04 04:39:33;;;;;;;11.10;3.07;;;10.70;99.90;;;;;;5252107;28;21001;-51
2022/10/04 04:42:09;;;;;;;15.67;3.10;;;10.60;99.90;;;;;;5249097;28;20447;-51
2022/10/04 04:45:10;;;;;;;15.00;3.97;;;10.60;99.90;;;;;;5248940;28;20796;-50
2022/10/04 04:47:45;;;;;;;14.20;3.23;;;10.60;99.90;;;;;;5239838;28;20448;-50
2022/10/04 04:50:26;;;;;;;11.73;3.00;;;10.60;99.90;;;;;;5246404;28;20532;-52
2022/10/04 04:53:05;;;;;;;23.77;4.10;;;10.60;99.90;;;;;;5243100;28;20440;-49
2022/10/04 04:55:59;;;;;;;9.80;2.70;;;10.60;99.90;;;;;;5252649;28;20435;-49
2022/10/04 04:58:34;;;;;;;15.57;3.20;;;10.60;99.90;;;;;;5236570;28;20436;-51
2022/10/04 05:01:14;;;;;;;16.90;2.90;;;10.60;99.90;;;;;;5246770;28;20451;-49
2022/10/04 05:04:03;;;;;;;13.10;3.43;;;10.60;99.90;;;;;;5240150;28;20440;-49
2022/10/04 05:06:35;;;;;;;7.33;2.60;;;10.60;99.90;;;;;;5241352;28;20460;-51
2022/10/04 05:09:27;;;;;;;9.83;3.70;;;10.60;99.90;;;;;;5246965;28;20452;-51
2022/10/04 05:12:21;;;;;;;9.70;2.53;;;10.60;99.90;;;;;;5239341;28;21055;-49
2022/10/04 05:14:53;;;;;;;12.33;3.10;;;10.50;99.90;;;;;;5232059;28;20437;-51
2022/10/04 05:17:28;;;;;;;10.40;2.87;;;10.50;99.90;;;;;;5233044;28;20800;-51
2022/10/04 05:20:04;;;;;;;13.37;3.73;;;10.50;99.90;;;;;;5233330;28;20500;-49
2022/10/04 05:22:37;;;;;;;18.67;3.53;;;10.50;99.90;;;;;;5236765;28;20440;-49
2022/10/04 05:25:15;;;;;;;14.10;2.90;;;10.50;99.90;;;;;;5234436;28;20840;-51
2022/10/04 05:27:45;;;;;;;15.10;4.17;;;10.50;99.90;;;;;;5235350;28;20417;-49
2022/10/04 05:30:48;;;;;;;16.97;3.37;;;10.60;99.90;;;;;;5243669;28;20547;-49
2022/10/04 05:33:48;;;;;;;15.30;3.63;;;10.60;99.90;;;;;;5231810;28;20184;-49
2022/10/04 05:36:37;;;;;;;17.73;3.60;;;10.70;99.90;;;;;;5227008;28;20444;-50
2022/10/04 05:39:17;;;;;;;13.10;3.23;;;10.80;99.90;;;;;;5237821;28;20760;-50
2022/10/04 05:42:11;;;;;;;9.63;2.77;;;10.90;99.90;;;;;;5242449;28;20740;-50
2022/10/04 05:44:50;;;;;;;24.53;4.13;;;11.00;99.90;;;;;;5232792;28;20437;-50
2022/10/04 05:47:26;;;;;;;10.27;2.77;;;11.10;99.90;;;;;;5242726;28;20439;-50
2022/10/04 05:49:58;;;;;;;3.40;2.07;;;11.30;99.90;;;;;;5244370;28;20820;-50
2022/10/04 05:52:34;;;;;;;5.50;2.87;;;11.40;99.90;;;;;;5237050;28;20912;-51
2022/10/04 05:55:11;;;;;;;13.73;3.57;;;11.60;99.90;;;;;;5246008;28;20851;-54
2022/10/04 05:58:20;;;;;;;12.10;2.70;;;11.70;99.90;;;;;;5245238;28;20785;-49
2022/10/04 06:01:09;;;;;;;4.43;2.70;;;11.90;99.90;;;;;;5236477;28;20483;-50
2022/10/04 06:04:08;;;;;;;6.13;2.37;;;12.10;99.90;;;;;;5234921;28;20953;-50
2022/10/04 06:06:49;;;;;;;10.10;2.90;;;12.30;99.90;;;;;;5231981;28;20468;-50
2022/10/04 06:09:31;;;;;;;13.60;4.33;;;12.50;99.90;;;;;;5241873;28;20814;-50
2022/10/04 06:12:46;;;;;;;8.57;2.70;;;12.60;99.90;;;;;;5243159;28;20429;-50
2022/10/04 06:15:40;;;;;;;9.40;2.80;;;12.80;99.90;;;;;;5241588;28;20433;-51
2022/10/04 06:18:32;;;;;;;3.60;1.70;;;13.20;99.90;;;;;;5209929;28;20436;-51
2022/10/04 06:21:26;;;;;;;19.57;3.47;;;14.40;99.90;;;;;;5233584;28;20985;-51
2022/10/04 06:24:20;;;;;;;7.17;2.20;;;17.00;99.90;;;;;;5234653;28;20440;-50
2022/10/04 06:27:02;;;;;;;9.27;2.07;;;19.60;99.90;;;;;;5245467;28;20464;-50
2022/10/04 06:29:42;;;;;;;3.50;2.00;;;20.80;96.40;;;;;;5245719;28;20456;-52
2022/10/04 06:32:49;;;;;;;3.27;2.10;;;21.70;90.10;;;;;;5237976;28;20432;-52
2022/10/04 06:35:52;;;;;;;6.33;2.20;;;22.80;83.50;;;;;;5246467;28;20874;-50
2022/10/04 06:38:43;;;;;;;5.03;2.53;;;22.60;72.80;;;;;;5191017;28;20448;-50
2022/10/04 06:41:40;;;;;;;8.43;1.90;;;20.30;79.50;;;;;;5239461;28;20500;-51
2022/10/04 06:44:27;;;;;;;11.03;2.33;;;20.50;81.50;;;;;;5228552;28;20429;-53
2022/10/04 06:46:57;;;;;;;6.73;2.00;;;21.90;74.70;;;;;;5251931;28;21043;-50
2022/10/04 06:49:47;;;;;;;3.70;2.20;;;21.70;70.90;;;;;;5236458;28;20535;-50
2022/10/04 06:52:26;;;;;;;4.43;2.27;;;19.90;77.40;;;;;;5225979;28;20186;-52
2022/10/04 06:55:18;;;;;;;12.20;2.27;;;18.20;87.00;;;;;;5238367;28;20454;-50
2022/10/04 06:58:07;;;;;;;8.73;2.67;;;16.70;96.40;;;;;;5245878;28;20512;-50
2022/10/04 07:01:06;;;;;;;4.93;2.20;;;15.80;99.90;;;;;;5244304;28;20453;-50
2022/10/04 07:04:02;;;;;;;6.20;2.33;;;15.20;99.90;;;;;;5241486;28;20435;-49
2022/10/04 07:06:50;;;;;;;2.53;1.63;;;15.00;99.90;;;;;;5239969;28;20508;-50
2022/10/04 07:09:26;;;;;;;4.93;1.97;;;14.60;99.90;;;;;;5242373;28;20456;-48
2022/10/04 07:12:08;;;;;;;5.30;1.67;;;14.40;99.90;;;;;;5238780;28;20477;-50
2022/10/04 07:14:45;;;;;;;9.27;3.23;;;14.20;99.90;;;;;;5241497;28;20512;-49
2022/10/04 07:17:37;;;;;;;10.43;2.10;;;14.30;99.90;;;;;;5248283;28;20424;-49
2022/10/04 07:20:26;;;;;;;8.43;1.90;;;14.20;99.90;;;;;;5244998;28;20461;-50
2022/10/04 07:23:05;;;;;;;5.13;2.57;;;14.10;99.90;;;;;;5244380;28;20517;-50
2022/10/04 07:25:47;;;;;;;13.63;2.30;;;14.10;99.90;;;;;;5240006;28;20456;-50
2022/10/04 07:31:27;;;;;;;6.37;2.47;;;14.30;99.90;;;;;;5234421;28;20497;-50
2022/10/04 07:34:08;;;;;;;3.50;2.20;;;14.40;99.90;;;;;;5244471;28;20443;-51
2022/10/04 07:36:45;;;;;;;6.20;2.90;;;14.50;99.90;;;;;;5238313;28;20435;-50
2022/10/04 07:39:30;;;;;;;7.10;2.93;;;14.60;99.90;;;;;;5237938;28;20472;-50
2022/10/04 07:42:35;;;;;;;4.07;2.17;;;14.40;99.90;;;;;;5237498;28;20442;-50
2022/10/04 07:45:25;;;;;;;5.67;2.80;;;14.30;99.90;;;;;;5236615;28;20544;-50
2022/10/04 07:48:08;;;;;;;4.40;2.23;;;14.00;99.90;;;;;;5238904;28;20909;-49
2022/10/04 07:51:08;;;;;;;13.03;2.90;;;13.80;99.90;;;;;;5254240;28;21067;-51
2022/10/04 07:53:53;;;;;;;23.93;2.83;;;13.70;99.90;;;;;;5243906;28;20799;-50
2022/10/04 07:57:00;;;;;;;14.50;4.00;;;13.80;99.90;;;;;;5237597;28;20443;-51
2022/10/04 07:59:56;;;;;;;7.83;2.33;;;13.90;99.90;;;;;;5221928;28;20472;-52
2022/10/04 08:02:42;;;;;;;3.77;3.00;;;14.00;99.90;;;;;;5238770;28;20779;-50
2022/10/04 08:05:28;;;;;;;10.07;3.10;;;14.10;99.90;;;;;;5237910;28;20456;-49
2022/10/04 08:08:19;;;;;;;17.47;3.00;;;14.00;99.90;;;;;;5236205;28;20490;-52
2022/10/04 08:11:20;;;;;;;13.70;3.63;;;14.10;99.90;;;;;;5240494;28;20472;-48
2022/10/04 08:14:03;;;;;;;10.10;2.97;;;14.10;99.90;;;;;;5243413;28;20516;-49
2022/10/04 08:16:42;;;;;;;17.40;3.40;;;14.00;99.90;;;;;;5242033;28;20940;-53
2022/10/04 08:19:40;;;;;;;7.80;2.80;;;14.00;99.90;;;;;;5238533;28;20563;-49
2022/10/04 08:22:40;;;;;;;11.83;3.50;;;13.90;99.90;;;;;;5238211;28;20523;-51
2022/10/04 08:25:41;;;;;;;10.43;3.30;;;13.90;99.90;;;;;;5241236;28;20474;-52
2022/10/04 08:29:56;;;;;;;8.70;3.33;;;14.10;99.90;;;;;;5237393;28;20432;-48
2022/10/04 08:32:21;;;;;;;11.50;3.60;;;14.60;99.90;;;;;;5218254;28;20858;-51
2022/10/04 08:35:00;;;;;;;8.17;4.07;;;15.70;99.90;;;;;;5240325;28;20436;-52
2022/10/04 08:37:52;;;;;;;4.63;3.40;;;16.30;99.90;;;;;;5257606;28;20532;-51
2022/10/04 08:40:43;;;;;;;5.90;3.10;;;16.40;99.90;;;;;;5238230;28;20999;-50
2022/10/04 08:43:32;;;;;;;4.00;2.80;;;16.40;99.90;;;;;;5240428;28;20437;-50
2022/10/04 08:46:22;;;;;;;5.57;2.40;;;16.20;99.90;;;;;;5243058;28;20480;-49
2022/10/04 08:49:12;;;;;;;12.10;4.10;;;16.00;99.90;;;;;;5242337;28;20428;-51
2022/10/04 08:52:16;;;;;;;10.27;3.47;;;16.00;99.90;;;;;;5236982;28;20530;-50
2022/10/04 08:55:02;;;;;;;8.00;3.57;;;16.10;99.90;;;;;;5241790;28;20440;-50
2022/10/04 08:58:03;;;;;;;5.10;3.60;;;16.40;99.90;;;;;;5241027;28;20498;-50
2022/10/04 09:00:58;;;;;;;6.73;3.30;;;16.20;99.90;;;;;;5232886;28;20441;-51
2022/10/04 09:03:41;;;;;;;6.93;4.20;;;16.10;99.90;;;;;;5234135;28;20448;-51
2022/10/04 09:06:25;;;;;;;4.93;3.30;;;15.80;99.90;;;;;;5234866;28;20517;-51
2022/10/04 09:09:33;;;;;;;11.93;3.60;;;15.90;99.90;;;;;;5234694;28;20428;-51
2022/10/04 09:12:18;;;;;;;9.07;2.67;;;16.30;99.90;;;;;;5231899;28;20429;-52
2022/10/04 09:14:56;;;;;;;6.33;3.50;;;16.60;99.90;;;;;;5240775;28;20441;-51
2022/10/04 09:17:58;;;;;;;3.23;2.60;;;16.70;99.90;;;;;;5239378;28;20515;-51
2022/10/04 09:20:53;;;;;;;4.30;2.70;;;16.90;99.90;;;;;;5241901;28;20539;-50
2022/10/04 09:23:30;;;;;;;10.90;2.50;;;17.20;99.90;;;;;;5240613;28;20509;-51
2022/10/04 09:26:20;;;;;;;3.37;3.10;;;17.60;99.90;;;;;;5233397;28;21050;-52
2022/10/04 09:29:33;;;;;;;10.10;3.00;;;18.00;99.90;;;;;;5234366;28;20443;-50
2022/10/04 09:32:18;;;;;;;7.97;3.10;;;17.90;99.90;;;;;;5238724;28;20444;-49
2022/10/04 09:34:51;;;;;;;13.30;3.07;;;17.80;99.90;;;;;;5238332;28;20414;-49
2022/10/04 09:38:10;;;;;;;4.93;3.03;;;17.70;99.90;;;;;;5242068;28;20425;-51
2022/10/04 09:41:18;;;;;;;6.50;2.80;;;17.20;99.90;;;;;;5245873;22;20481;-50
2022/10/04 09:44:07;;;;;;;2.63;2.43;;;16.90;99.90;;;;;;5228830;28;20444;-50
2022/10/04 09:47:00;;;;;;;4.80;2.40;;;16.90;99.90;;;;;;5244166;28;20463;-54
2022/10/04 09:49:36;;;;;;;4.50;2.40;;;17.20;99.90;;;;;;5259052;28;20528;-52
2022/10/04 09:52:38;;;;;;;5.83;3.00;;;17.30;99.90;;;;;;5241310;28;20435;-51
2022/10/04 09:55:31;;;;;;;6.63;2.30;;;17.40;99.90;;;;;;5237899;28;20454;-51
2022/10/04 09:58:21;;;;;;;4.03;2.47;;;17.50;99.90;;;;;;5242832;28;20856;-51
2022/10/04 10:01:39;;;;;;;5.40;2.87;;;17.60;99.90;;;;;;5241549;28;20456;-53
2022/10/04 10:04:44;;;;;;;5.60;1.73;;;17.80;99.90;;;;;;5200806;28;20516;-49
2022/10/04 10:07:42;;;;;;;3.17;2.07;;;17.90;99.90;;;;;;5172021;28;20534;-53
2022/10/04 10:13:43;;;;;;;3.40;2.37;;;18.40;99.90;;;;;;5239957;28;20772;-53
2022/10/04 10:16:24;;;;;;;7.53;2.57;;;18.90;99.90;;;;;;5243149;28;20428;-52
2022/10/04 10:19:22;;;;;;;2.47;1.80;;;19.20;99.90;;;;;;5244779;28;20854;-53
2022/10/04 10:21:53;;;;;;;2.87;1.53;;;19.40;99.90;;;;;;5237363;28;20447;-51
2022/10/04 10:24:32;;;;;;;1.57;1.23;;;19.30;99.90;;;;;;5239734;28;20436;-53
2022/10/04 10:27:40;;;;;;;2.97;1.93;;;19.10;99.90;;;;;;5259719;28;20205;-51
2022/10/04 10:30:27;;;;;;;6.67;2.60;;;18.90;99.10;;;;;;5259758;28;20686;-53
2022/10/04 10:33:03;;;;;;;1.70;1.20;;;18.40;99.70;;;;;;5245316;28;20463;-52
2022/10/04 10:35:45;;;;;;;4.73;1.90;;;18.60;99.90;;;;;;5241760;28;20429;-51
2022/10/04 10:38:27;;;;;;;6.40;2.10;;;18.70;99.70;;;;;;5242507;28;20431;-52
2022/10/04 10:41:34;;;;;;;6.00;2.03;;;18.60;99.60;;;;;;5241129;28;20823;-53
2022/10/04 10:44:18;;;;;;;9.63;2.60;;;18.30;99.90;;;;;;5261405;28;20951;-51
2022/10/04 10:47:12;;;;;;;3.10;2.10;;;18.30;99.90;;;;;;5253842;28;20474;-53
2022/10/04 10:49:53;;;;;;;3.30;1.97;;;18.20;99.90;;;;;;5263213;28;20474;-53
2022/10/04 10:52:39;;;;;;;6.73;3.17;;;18.30;99.90;;;;;;5241983;28;20440;-53
2022/10/04 10:55:34;;;;;;;6.37;3.20;;;18.60;99.90;;;;;;5262111;28;20476;-52
2022/10/04 10:58:32;;;;;;;5.40;2.70;;;18.70;99.90;;;;;;5250604;28;20435;-53
2022/10/04 11:01:28;;;;;;;3.87;2.97;;;18.70;99.90;;;;;;5244631;28;20483;-53
2022/10/04 11:04:34;;;;;;;5.77;2.50;;;18.60;99.90;;;;;;5251914;28;20437;-50
2022/10/04 11:07:15;;;;;;;10.23;4.30;;;18.70;99.90;;;;;;5245687;28;20829;-50
2022/10/04 11:10:44;;;;;;;10.07;2.97;;;18.70;99.50;;;;;;5246000;28;20463;-51
2022/10/04 11:13:46;;;;;;;2.60;2.10;;;18.30;99.90;;;;;;5184203;28;20543;-48
2022/10/04 11:16:50;;;;;;;5.87;2.40;;;17.80;99.90;;;;;;5182831;28;20526;-50
2022/10/04 11:19:51;;;;;;;4.20;2.10;;;17.80;99.90;;;;;;5253343;28;20455;-51
2022/10/04 11:23:07;;;;;;;6.33;2.47;;;18.00;99.90;;;;;;5258388;28;20423;-54
2022/10/04 11:26:14;;;;;;;3.83;2.23;;;18.10;99.90;;;;;;5254388;28;20448;-50
2022/10/04 11:29:11;;;;;;;12.30;4.00;;;18.00;99.90;;;;;;5263948;28;20417;-48
2022/10/04 11:32:01;;;;;;;9.10;3.80;;;18.10;99.90;;;;;;5242823;28;20794;-50
2022/10/04 11:35:20;;;;;;;10.60;5.40;;;18.20;99.90;;;;;;5262698;28;20436;-51
2022/10/04 11:38:07;;;;;;;14.50;4.13;;;18.20;99.90;;;;;;5257647;28;20429;-48
2022/10/04 11:41:12;;;;;;;7.93;2.87;;;18.40;99.90;;;;;;5264001;28;20844;-52
2022/10/04 11:43:58;;;;;;;8.80;3.43;;;18.20;99.90;;;;;;5260274;28;20499;-48
2022/10/04 11:46:34;;;;;;;9.23;2.80;;;17.60;99.90;;;;;;5253334;28;20550;-47
2022/10/04 11:49:34;;;;;;;5.67;2.60;;;17.30;99.90;;;;;;5254520;28;20508;-48
2022/10/04 11:52:30;;;;;;;4.50;2.10;;;17.50;99.90;;;;;;5241527;28;20429;-50
2022/10/04 11:55:25;;;;;;;6.93;2.60;;;17.70;99.90;;;;;;5253104;28;20437;-47
2022/10/04 11:58:18;;;;;;;4.83;1.97;;;17.80;99.90;;;;;;5244549;28;20436;-49
2022/10/04 12:01:07;;;;;;;5.40;1.83;;;17.80;99.90;;;;;;5247496;28;20460;-51
2022/10/04 12:03:41;;;;;;;7.63;2.57;;;17.80;99.90;;;;;;5238644;28;20436;-49
2022/10/04 12:06:44;;;;;;;12.10;2.33;;;17.90;99.90;;;;;;5250668;28;20495;-51
2022/10/04 12:09:27;;;;;;;6.13;2.87;;;17.70;99.90;;;;;;5246161;28;20436;-50
2022/10/04 12:12:38;;;;;;;8.40;3.97;;;17.60;99.90;;;;;;5241951;28;20516;-50
2022/10/04 12:15:12;;;;;;;9.27;4.50;;;17.70;99.90;;;;;;5238675;28;20441;-50
2022/10/04 12:18:27;;;;;;;4.93;3.30;;;17.70;99.90;;;;;;5246211;28;20443;-50
2022/10/04 12:21:13;;;;;;;4.50;2.47;;;17.70;99.90;;;;;;5249182;28;20462;-50
2022/10/04 12:24:28;;;;;;;5.23;2.50;;;17.90;99.90;;;;;;5250593;28;20442;-51
2022/10/04 12:27:27;;;;;;;12.73;3.23;;;18.20;99.90;;;;;;5251867;28;20472;-50
2022/10/04 12:30:01;;;;;;;3.40;2.87;;;18.60;99.90;;;;;;5264483;28;20448;-50
2022/10/04 12:32:53;;;;;;;9.23;2.70;;;18.60;99.90;;;;;;5248842;28;20432;-50
2022/10/04 12:35:28;;;;;;;4.20;1.77;;;18.40;99.90;;;;;;5232037;28;20475;-49
2022/10/04 12:38:23;;;;;;;5.90;2.37;;;18.30;99.90;;;;;;5253740;28;20601;-48
2022/10/04 12:41:03;;;;;;;6.00;2.03;;;18.30;99.90;;;;;;5246662;28;20552;-49
2022/10/04 12:43:42;;;;;;;1.53;1.50;;;18.30;99.90;;;;;;5247925;28;20431;-54
2022/10/04 12:46:33;;;;;;;2.73;1.70;;;18.40;99.90;;;;;;5243093;28;20466;-48
2022/10/04 12:49:33;;;;;;;2.37;1.60;;;18.30;99.90;;;;;;5247587;28;20500;-49
2022/10/04 12:52:16;;;;;;;2.03;1.70;;;18.20;99.90;;;;;;5245469;28;20441;-48
2022/10/04 12:55:08;;;;;;;3.47;2.90;;;17.90;99.90;;;;;;5255471;28;20441;-47
2022/10/04 12:58:01;;;;;;;3.40;1.50;;;17.90;99.90;;;;;;5242135;28;20466;-52
2022/10/04 13:00:38;;;;;;;12.53;2.70;;;17.80;99.90;;;;;;5234469;28;20992;-49
2022/10/04 13:03:58;;;;;;;14.50;7.60;;;17.60;99.90;;;;;;5254373;28;20475;-51
2022/10/04 13:06:54;;;;;;;10.60;4.03;;;17.60;99.90;;;;;;5230480;28;20460;-50
2022/10/04 13:09:53;;;;;;;9.03;5.77;;;17.50;99.90;;;;;;5263528;28;20473;-51
2022/10/04 13:12:56;;;;;;;5.47;2.43;;;17.70;99.90;;;;;;5250061;28;20497;-49
2022/10/04 13:15:58;;;;;;;14.67;4.40;;;17.90;99.90;;;;;;5264747;22;20487;-54
2022/10/04 13:18:55;;;;;;;6.20;3.17;;;18.00;99.90;;;;;;5290110;28;20521;-49
2022/10/04 13:21:38;;;;;;;6.10;2.17;;;18.00;99.90;;;;;;5259444;28;20486;-52
2022/10/04 13:24:29;;;;;;;3.03;1.50;;;18.00;99.90;;;;;;5242034;28;20431;-52
2022/10/04 13:27:15;;;;;;;6.90;1.80;;;18.10;99.90;;;;;;5260733;28;20467;-53
2022/10/04 13:30:23;;;;;;;7.33;3.03;;;18.30;99.90;;;;;;5246172;28;21212;-52
2022/10/04 13:33:02;;;;;;;3.80;2.63;;;18.50;99.80;;;;;;5216488;28;20457;-50
2022/10/04 13:35:56;;;;;;;18.97;10.10;;;18.60;98.40;;;;;;5256366;28;20427;-52
2022/10/04 13:38:51;;;;;;;17.57;8.90;;;18.50;97.90;;;;;;5258951;28;20433;-48
2022/10/04 13:41:21;;;;;;;20.80;5.90;;;18.60;98.00;;;;;;5258105;28;20468;-53
2022/10/04 13:44:09;;;;;;;9.70;2.47;;;18.60;97.60;;;;;;5259572;28;20935;-55
2022/10/04 13:47:12;;;;;;;6.47;2.67;;;18.70;97.90;;;;;;5259693;28;20247;-52
2022/10/04 13:50:04;;;;;;;5.03;1.80;;;18.90;96.50;;;;;;5185009;28;20466;-54
2022/10/04 13:59:24;;;;;;;4.63;1.90;;;18.80;96.50;;;;;;5272657;28;20830;-54
2022/10/04 14:02:13;;;;;;;6.20;2.30;;;18.80;95.30;;;;;;5259250;28;20446;-51
2022/10/04 14:05:02;;;;;;;6.17;1.67;;;18.70;95.80;;;;;;5254246;28;20431;-52
2022/10/04 14:08:11;;;;;;;6.97;2.60;;;18.60;96.50;;;;;;5255712;28;20514;-52
2022/10/04 14:11:06;;;;;;;4.13;1.70;;;18.90;96.40;;;;;;5265486;28;20589;-54
2022/10/04 14:14:16;;;;;;;3.17;1.80;;;19.20;94.80;;;;;;5258976;28;20428;-53
2022/10/04 14:17:22;;;;;;;11.60;1.60;;;19.10;95.10;;;;;;5244160;28;20442;-54
2022/10/04 14:20:31;;;;;;;2.83;1.53;;;19.20;93.60;;;;;;5238698;28;20486;-53
2022/10/04 14:23:23;;;;;;;1.80;1.70;;;19.20;94.30;;;;;;5223885;28;20433;-54
2022/10/04 14:26:22;;;;;;;4.20;1.70;;;19.50;93.60;;;;;;5261650;28;20592;-53
2022/10/04 14:29:30;;;;;;;5.27;2.13;;;19.80;91.90;;;;;;5244675;28;20477;-53
2022/10/04 14:32:12;;;;;;;4.20;1.87;;;19.90;90.20;;;;;;5267714;28;20422;-53
2022/10/04 14:34:54;;;;;;;3.33;1.33;;;20.00;87.20;;;;;;5258516;28;20439;-53
2022/10/04 14:37:34;;;;;;;6.47;4.93;;;19.50;88.20;;;;;;5260777;28;20914;-53
2022/10/04 14:40:32;;;;;;;8.53;1.97;;;19.10;90.20;;;;;;5233785;28;21001;-54